createdAt,value
2023-04-23T00:01:20.647Z,59.67
2023-04-23T00:03:48.750Z,60.31
2023-04-23T00:06:17.741Z,60.11
2023-04-23T00:08:45.031Z,59.73
2023-04-23T00:11:12.550Z,60.20
2023-04-23T00:13:40.038Z,60.65
2023-04-23T00:16:07.852Z,60.52
2023-04-23T00:18:35.210Z,59.59
2023-04-23T00:21:02.490Z,59.87
2023-04-23T00:23:29.869Z,60.40
2023-04-23T00:25:57.121Z,59.91
2023-04-23T00:28:24.430Z,60.34
2023-04-23T00:30:51.750Z,60.19
2023-04-23T00:33:19.073Z,60.61
2023-04-23T00:35:46.521Z,61.12
2023-04-23T00:38:13.857Z,61.61
2023-04-23T00:40:41.142Z,60.79
2023-04-23T00:43:09.793Z,61.79
2023-04-23T00:45:37.880Z,62.66
2023-04-23T00:48:05.233Z,62.58
2023-04-23T00:50:32.566Z,62.45
2023-04-23T00:53:00.001Z,62.07
2023-04-23T00:55:27.755Z,62.11
2023-04-23T00:57:55.104Z,61.99
2023-04-23T01:00:22.543Z,62.17
2023-04-23T01:02:50.740Z,62.39
2023-04-23T01:05:18.244Z,61.71
2023-04-23T01:07:45.740Z,62.03
2023-04-23T01:10:13.059Z,63.32
2023-04-23T01:12:40.441Z,64.19
2023-04-23T01:15:08.978Z,62.77
2023-04-23T01:17:37.190Z,61.58
2023-04-23T01:20:06.561Z,60.82
2023-04-23T01:22:37.712Z,60.71
2023-04-23T01:25:05.771Z,60.27
2023-04-23T01:27:33.248Z,60.49
2023-04-23T01:30:01.582Z,60.65
2023-04-23T01:32:28.879Z,60.82
2023-04-23T01:34:56.448Z,60.36
2023-04-23T01:37:24.104Z,60.55
2023-04-23T01:39:51.751Z,60.67
2023-04-23T01:42:19.085Z,60.98
2023-04-23T01:44:46.366Z,61.12
2023-04-23T01:47:13.614Z,61.37
2023-04-23T01:49:41.071Z,61.71
2023-04-23T01:52:08.666Z,61.42
2023-04-23T01:54:35.933Z,61.24
2023-04-23T01:57:03.873Z,61.56
2023-04-23T01:59:31.250Z,61.54
2023-04-23T02:01:58.571Z,61.52
2023-04-23T02:04:26.156Z,61.61
2023-04-23T02:06:53.636Z,61.35
2023-04-23T02:09:21.252Z,61.45
2023-04-23T02:11:48.562Z,61.79
2023-04-23T02:14:17.588Z,61.72
2023-04-23T02:16:45.566Z,61.82
2023-04-23T02:19:14.095Z,62.32
2023-04-23T02:21:43.177Z,62.09
2023-04-23T02:24:11.033Z,62.23
2023-04-23T02:26:38.350Z,62.48
2023-04-23T02:29:05.840Z,62.19
2023-04-23T02:31:33.145Z,63.20
2023-04-23T02:34:00.877Z,63.73
2023-04-23T02:36:31.095Z,63.30
2023-04-23T02:38:58.401Z,63.28
2023-04-23T02:41:25.686Z,62.53
2023-04-23T02:43:52.961Z,62.93
2023-04-23T02:46:20.337Z,63.28
2023-04-23T02:48:47.632Z,63.39
2023-04-23T02:51:14.917Z,63.56
2023-04-23T02:53:42.150Z,63.50
2023-04-23T02:56:09.524Z,64.06
2023-04-23T02:58:36.844Z,63.87
2023-04-23T03:01:04.300Z,64.46
2023-04-23T03:03:32.937Z,64.48
2023-04-23T03:06:02.363Z,63.62
2023-04-23T03:08:29.787Z,64.26
2023-04-23T03:10:57.015Z,63.64
2023-04-23T03:13:24.969Z,64.25
2023-04-23T03:15:52.642Z,64.57
2023-04-23T03:18:20.397Z,64.45
2023-04-23T03:20:51.334Z,64.47
2023-04-23T03:23:18.743Z,64.37
2023-04-23T03:25:47.769Z,64.58
2023-04-23T03:28:15.091Z,64.48
2023-04-23T03:30:42.603Z,64.05
2023-04-23T03:33:09.980Z,64.21
2023-04-23T03:35:37.932Z,64.07
2023-04-23T03:38:10.118Z,64.03
2023-04-23T03:40:37.885Z,64.57
2023-04-23T03:43:07.828Z,63.85
2023-04-23T03:46:00.941Z,63.94
2023-04-23T03:48:30.098Z,64.35
2023-04-23T03:50:58.078Z,64.43
2023-04-23T03:53:46.218Z,65.25
2023-04-23T03:56:31.406Z,65.32
2023-04-23T03:59:27.635Z,64.60
2023-04-23T04:01:58.578Z,64.67
2023-04-23T04:04:27.211Z,64.84
2023-04-23T04:06:56.664Z,65.21
2023-04-23T04:09:28.021Z,65.21
2023-04-23T04:11:55.612Z,65.09
2023-04-23T04:14:23.029Z,65.09
2023-04-23T04:16:50.807Z,64.71
2023-04-23T04:19:18.149Z,64.34
2023-04-23T04:21:45.633Z,64.57
2023-04-23T04:24:12.981Z,63.66
2023-04-23T04:26:40.375Z,65.76
2023-04-23T04:29:09.390Z,66.71
2023-04-23T04:31:37.415Z,67.18
2023-04-23T04:34:05.027Z,67.08
2023-04-23T04:36:33.116Z,66.56
2023-04-23T04:39:00.692Z,65.74
2023-04-23T04:41:27.967Z,65.81
2023-04-23T04:43:55.225Z,65.25
2023-04-23T04:46:22.544Z,64.84
2023-04-23T04:48:49.936Z,64.43
2023-04-23T04:51:17.189Z,65.40
2023-04-23T04:53:44.438Z,65.57
2023-04-23T04:56:11.748Z,65.18
2023-04-23T04:58:39.035Z,64.35
2023-04-23T05:01:06.686Z,62.75
2023-04-23T05:03:34.221Z,61.54
2023-04-23T05:06:01.647Z,61.27
2023-04-23T05:08:28.963Z,61.58
2023-04-23T05:10:56.335Z,60.71
2023-04-23T05:13:23.749Z,60.82
2023-04-23T05:15:51.099Z,61.14
2023-04-23T05:18:18.561Z,61.03
2023-04-23T05:20:45.824Z,60.62
2023-04-23T05:23:13.091Z,60.75
2023-04-23T05:25:41.229Z,60.42
2023-04-23T05:28:08.804Z,60.61
2023-04-23T05:30:36.351Z,61.30
2023-04-23T05:33:03.783Z,60.43
2023-04-23T05:35:32.016Z,59.94
2023-04-23T05:37:59.884Z,59.05
2023-04-23T05:40:27.181Z,58.36
2023-04-23T05:42:54.861Z,57.34
2023-04-23T05:45:22.297Z,57.37
2023-04-23T05:47:49.605Z,56.93
2023-04-23T05:50:16.890Z,56.58
2023-04-23T05:52:44.176Z,54.85
2023-04-23T05:55:11.527Z,54.43
2023-04-23T05:57:38.892Z,53.14
2023-04-23T06:00:09.659Z,52.66
2023-04-23T06:02:40.645Z,51.14
2023-04-23T06:05:08.596Z,51.25
2023-04-23T06:07:36.577Z,51.78
2023-04-23T06:10:05.549Z,52.40
2023-04-23T06:12:32.915Z,51.89
2023-04-23T06:15:00.303Z,52.07
2023-04-23T06:17:27.574Z,51.47
2023-04-23T06:19:54.892Z,51.22
2023-04-23T06:22:22.223Z,50.92
2023-04-23T06:24:49.550Z,51.24
2023-04-23T06:27:16.818Z,49.43
2023-04-23T06:29:48.716Z,48.96
2023-04-23T06:32:17.301Z,49.65
2023-04-23T06:34:59.375Z,49.56
2023-04-23T06:37:29.872Z,49.82
2023-04-23T06:39:58.499Z,49.69
2023-04-23T06:42:25.830Z,49.50
2023-04-23T06:45:16.351Z,48.73
2023-04-23T06:47:44.985Z,47.41
2023-04-23T06:50:12.371Z,47.60
2023-04-23T06:52:39.824Z,47.18
2023-04-23T06:55:08.044Z,47.50
2023-04-23T06:57:36.107Z,45.96
2023-04-23T07:00:05.641Z,46.37
2023-04-23T07:02:37.829Z,45.96
2023-04-23T07:05:05.662Z,45.30
2023-04-23T07:07:33.119Z,44.61
2023-04-23T07:10:00.470Z,43.78
2023-04-23T07:12:27.744Z,45.16
2023-04-23T07:14:55.318Z,44.99
2023-04-23T07:17:22.669Z,44.78
2023-04-23T07:19:50.678Z,43.35
2023-04-23T07:22:18.072Z,43.29
2023-04-23T07:24:45.395Z,43.85
2023-04-23T07:27:12.676Z,43.64
2023-04-23T07:29:39.963Z,44.06
2023-04-23T07:32:07.337Z,44.27
2023-04-23T07:34:38.013Z,43.02
2023-04-23T07:37:05.853Z,43.53
2023-04-23T07:39:33.138Z,42.34
2023-04-23T07:42:00.785Z,42.63
2023-04-23T07:44:28.130Z,42.47
2023-04-23T07:46:55.514Z,42.13
2023-04-23T07:49:22.883Z,41.85
2023-04-23T07:51:50.219Z,41.88
2023-04-23T07:54:17.915Z,40.68
2023-04-23T07:56:45.246Z,40.37
2023-04-23T07:59:12.552Z,40.42
2023-04-23T08:01:39.905Z,40.66
2023-04-23T08:04:07.377Z,41.86
2023-04-23T08:06:35.663Z,41.54
2023-04-23T08:09:06.484Z,41.40
2023-04-23T08:11:33.970Z,40.50
2023-04-23T08:14:01.751Z,39.37
2023-04-23T08:16:30.423Z,39.63
2023-04-23T08:19:05.242Z,39.98
2023-04-23T08:21:33.624Z,39.59
2023-04-23T08:24:03.060Z,39.04
2023-04-23T08:26:31.196Z,39.12
2023-04-23T08:29:00.701Z,39.14
2023-04-23T08:31:28.288Z,38.24
2023-04-23T08:33:55.924Z,37.64
2023-04-23T08:36:23.359Z,38.20
2023-04-23T08:38:50.724Z,38.77
2023-04-23T08:41:18.556Z,39.09
2023-04-23T08:43:55.077Z,39.09
2023-04-23T08:46:22.370Z,38.57
2023-04-23T08:48:49.747Z,38.37
2023-04-23T08:51:18.333Z,37.23
2023-04-23T08:53:46.117Z,37.14
2023-04-23T08:56:13.927Z,36.65
2023-04-23T08:58:41.445Z,35.89
2023-04-23T09:01:08.845Z,35.68
2023-04-23T09:03:36.841Z,34.45
2023-04-23T09:06:05.055Z,33.67
2023-04-23T09:08:32.524Z,33.90
2023-04-23T09:11:01.195Z,33.46
2023-04-23T09:13:30.626Z,33.85
2023-04-23T09:15:57.974Z,33.26
2023-04-23T09:18:25.437Z,32.78
2023-04-23T09:20:52.751Z,31.97
2023-04-23T09:23:21.699Z,31.27
2023-04-23T09:25:49.001Z,30.58
2023-04-23T09:28:16.291Z,29.58
2023-04-23T09:30:46.991Z,29.13
2023-04-23T09:33:14.247Z,28.41
2023-04-23T09:35:43.323Z,28.20
2023-04-23T09:38:10.799Z,27.80
2023-04-23T09:40:38.840Z,28.63
2023-04-23T09:43:07.447Z,28.17
2023-04-23T09:45:35.559Z,27.18
2023-04-23T09:48:02.921Z,27.97
2023-04-23T09:50:33.932Z,27.99
2023-04-23T09:53:01.268Z,27.48
2023-04-23T09:55:35.602Z,27.29
2023-04-23T09:58:04.572Z,28.09
2023-04-23T10:00:36.449Z,26.83
2023-04-23T10:03:04.193Z,26.42
2023-04-23T10:05:45.084Z,27.22
2023-04-23T10:08:17.834Z,26.89
2023-04-23T10:11:02.442Z,26.80
2023-04-23T10:13:35.717Z,26.84
2023-04-23T10:16:18.056Z,27.00
2023-04-23T10:18:50.964Z,26.70
2023-04-23T10:21:18.262Z,26.53
2023-04-23T10:23:45.570Z,25.55
2023-04-23T10:26:13.769Z,25.20
2023-04-23T10:28:41.135Z,25.74
2023-04-23T10:31:08.451Z,25.44
2023-04-23T10:33:42.895Z,26.49
2023-04-23T10:36:17.375Z,25.61
2023-04-23T10:38:56.827Z,25.99
2023-04-23T10:41:26.644Z,25.18
2023-04-23T10:43:54.099Z,26.08
2023-04-23T10:46:34.467Z,26.68
2023-04-23T10:49:14.849Z,26.77
2023-04-23T10:54:19.625Z,26.73
2023-04-23T10:56:46.924Z,27.20
2023-04-23T10:59:21.155Z,27.14
2023-04-23T11:01:49.249Z,27.52
2023-04-23T11:04:29.545Z,27.66
2023-04-23T11:07:10.372Z,27.75
2023-04-23T11:09:42.978Z,27.80
2023-04-23T11:12:30.960Z,27.84
2023-04-23T11:15:01.595Z,27.40
2023-04-23T11:17:31.986Z,26.95
2023-04-23T11:20:22.681Z,27.09
2023-04-23T11:22:50.381Z,27.19
2023-04-23T11:25:21.725Z,27.49
2023-04-23T11:27:49.832Z,27.77
2023-04-23T11:30:18.653Z,27.76
2023-04-23T11:32:49.024Z,27.40
2023-04-23T11:35:18.331Z,27.35
2023-04-23T11:37:45.819Z,27.08
2023-04-23T11:40:15.209Z,26.81
2023-04-23T11:42:50.569Z,26.80
2023-04-23T11:45:25.314Z,26.47
2023-04-23T11:47:56.048Z,26.77
2023-04-23T11:50:24.823Z,26.99
2023-04-23T11:52:52.880Z,25.46
2023-04-23T11:55:20.744Z,25.67
2023-04-23T11:57:49.275Z,26.00
2023-04-23T12:00:21.378Z,26.67
2023-04-23T12:03:02.169Z,27.17
2023-04-23T12:05:37.594Z,26.57
2023-04-23T12:08:08.859Z,25.64
2023-04-23T12:11:02.742Z,26.20
2023-04-23T12:13:31.533Z,26.64
2023-04-23T12:15:59.696Z,25.78
2023-04-23T12:18:35.597Z,26.37
2023-04-23T12:21:10.437Z,25.85
2023-04-23T12:23:38.431Z,26.13
2023-04-23T12:26:11.502Z,25.53
2023-04-23T12:28:50.558Z,25.75
2023-04-23T12:31:22.208Z,25.38
2023-04-23T12:34:13.699Z,25.43
2023-04-23T12:36:50.576Z,25.34
2023-04-23T12:39:31.766Z,24.94
2023-04-23T12:42:05.064Z,24.93
2023-04-23T12:44:34.693Z,25.39
2023-04-23T12:47:03.666Z,24.78
2023-04-23T12:49:31.498Z,24.66
2023-04-23T12:52:01.522Z,24.82
2023-04-23T12:54:32.072Z,24.62
2023-04-23T12:57:00.053Z,24.13
2023-04-23T12:59:27.308Z,23.69
2023-04-23T13:01:54.628Z,22.83
2023-04-23T13:04:21.928Z,22.59
2023-04-23T13:06:49.352Z,22.16
2023-04-23T13:09:16.622Z,21.90
2023-04-23T13:11:44.118Z,22.34
2023-04-23T13:14:11.405Z,22.29
2023-04-23T13:16:38.656Z,22.17
2023-04-23T13:19:05.907Z,22.49
2023-04-23T13:21:33.203Z,22.46
2023-04-23T13:24:00.547Z,22.62
2023-04-23T13:26:31.960Z,22.44
2023-04-23T13:28:59.961Z,22.91
2023-04-23T13:31:27.326Z,22.25
2023-04-23T13:33:54.960Z,21.05
2023-04-23T13:36:22.354Z,21.26
2023-04-23T13:38:49.706Z,20.54
2023-04-23T13:41:17.007Z,20.90
2023-04-23T13:43:44.360Z,21.20
2023-04-23T13:46:11.716Z,21.68
2023-04-23T13:48:39.067Z,21.51
2023-04-23T13:51:11.392Z,21.85
2023-04-23T13:53:41.051Z,21.23
2023-04-23T13:56:08.353Z,21.01
2023-04-23T13:58:35.758Z,21.74
2023-04-23T14:01:03.161Z,21.44
2023-04-23T14:03:31.048Z,21.30
2023-04-23T14:05:58.703Z,20.45
2023-04-23T14:08:25.918Z,19.93
2023-04-23T14:10:53.208Z,20.31
2023-04-23T14:13:20.491Z,19.72
2023-04-23T14:15:47.780Z,18.87
2023-04-23T14:18:15.037Z,18.00
2023-04-23T14:20:42.406Z,17.94
2023-04-23T14:23:27.880Z,17.70
2023-04-23T14:26:04.967Z,17.48
2023-04-23T14:28:35.924Z,16.83
2023-04-23T14:31:03.212Z,16.42
2023-04-23T14:33:30.737Z,16.16
2023-04-23T14:35:58.492Z,17.52
2023-04-23T14:38:26.856Z,17.52
2023-04-23T14:40:55.827Z,17.02
2023-04-23T14:43:23.107Z,16.41
2023-04-23T14:45:51.045Z,16.24
2023-04-23T14:48:18.335Z,16.94
2023-04-23T14:50:45.995Z,16.73
2023-04-23T14:53:13.369Z,16.97
2023-04-23T14:55:43.247Z,17.13
2023-04-23T14:58:10.604Z,17.55
2023-04-23T15:00:38.426Z,17.47
2023-04-23T15:03:10.660Z,17.23
2023-04-23T15:05:38.365Z,17.56
2023-04-23T15:08:05.936Z,17.72
2023-04-23T15:10:33.322Z,17.38
2023-04-23T15:13:07.190Z,17.70
2023-04-23T15:15:48.814Z,17.91
2023-04-23T15:18:16.248Z,17.84
2023-04-23T15:20:43.833Z,17.93
2023-04-23T15:23:11.308Z,17.12
2023-04-23T15:25:39.374Z,17.19
2023-04-23T15:28:07.164Z,16.54
2023-04-23T15:30:34.626Z,18.45
2023-04-23T15:33:01.905Z,17.82
2023-04-23T15:35:29.559Z,18.39
2023-04-23T15:37:57.241Z,18.65
2023-04-23T15:40:24.589Z,18.22
2023-04-23T15:42:51.881Z,17.87
2023-04-23T15:45:19.342Z,18.10
2023-04-23T15:47:46.672Z,18.11
2023-04-23T15:50:14.268Z,17.93
2023-04-23T15:52:41.916Z,18.51
2023-04-23T15:55:09.443Z,18.23
2023-04-23T15:57:36.702Z,18.40
2023-04-23T16:00:04.163Z,18.61
2023-04-23T16:02:39.256Z,18.12
2023-04-23T16:05:06.945Z,18.21
2023-04-23T16:07:34.314Z,18.41
2023-04-23T16:10:02.438Z,17.72
2023-04-23T16:12:29.711Z,18.21
2023-04-23T16:14:56.990Z,18.01
2023-04-23T16:17:25.212Z,19.10
2023-04-23T16:19:53.628Z,21.61
2023-04-23T16:22:21.253Z,23.14
2023-04-23T16:24:48.525Z,24.07
2023-04-23T16:27:15.816Z,25.02
2023-04-23T16:29:43.392Z,25.62
2023-04-23T16:32:10.755Z,25.94
2023-04-23T16:34:37.975Z,26.05
2023-04-23T16:37:05.862Z,26.18
2023-04-23T16:39:33.368Z,26.30
2023-04-23T16:42:00.625Z,26.32
2023-04-23T16:44:27.926Z,26.49
2023-04-23T16:46:55.183Z,26.75
2023-04-23T16:49:22.544Z,26.94
2023-04-23T16:51:49.840Z,28.12
2023-04-23T16:54:17.166Z,27.95
2023-04-23T16:56:45.703Z,29.32
2023-04-23T16:59:15.241Z,29.85
2023-04-23T17:01:42.546Z,30.99
2023-04-23T17:04:09.984Z,32.34
2023-04-23T17:06:37.326Z,33.25
2023-04-23T17:09:05.273Z,34.00
2023-04-23T17:11:32.549Z,33.59
2023-04-23T17:13:59.805Z,34.31
2023-04-23T17:16:27.185Z,34.79
2023-04-23T17:18:54.982Z,35.58
2023-04-23T17:21:22.737Z,35.87
2023-04-23T17:23:50.032Z,36.03
2023-04-23T17:26:17.311Z,36.49
2023-04-23T17:28:44.656Z,36.50
2023-04-23T17:31:11.902Z,36.80
2023-04-23T17:33:39.454Z,36.63
2023-04-23T17:36:06.756Z,36.89
2023-04-23T17:38:34.427Z,37.23
2023-04-23T17:41:01.796Z,37.32
2023-04-23T17:43:29.150Z,37.52
2023-04-23T17:45:56.476Z,37.53
2023-04-23T17:48:23.833Z,37.91
2023-04-23T17:50:51.225Z,37.46
2023-04-23T17:53:18.522Z,37.35
2023-04-23T17:55:45.764Z,37.90
2023-04-23T17:58:13.011Z,37.55
2023-04-23T18:00:44.182Z,37.39
2023-04-23T18:03:16.424Z,38.07
2023-04-23T18:05:45.006Z,38.25
2023-04-23T18:08:12.945Z,38.93
2023-04-23T18:10:40.377Z,38.31
2023-04-23T18:13:11.471Z,38.21
2023-04-23T18:15:40.907Z,38.19
2023-04-23T18:18:08.703Z,38.16
2023-04-23T18:20:38.560Z,38.68
2023-04-23T18:23:06.632Z,39.18
2023-04-23T18:25:34.124Z,39.10
2023-04-23T18:28:01.409Z,39.06
2023-04-23T18:30:28.760Z,39.59
2023-04-23T18:33:02.645Z,39.86
2023-04-23T18:35:29.973Z,39.46
2023-04-23T18:38:02.813Z,39.33
2023-04-23T18:40:30.135Z,40.32
2023-04-23T18:42:57.685Z,40.63
2023-04-23T18:45:25.011Z,41.11
2023-04-23T18:47:57.509Z,41.40
2023-04-23T18:50:36.905Z,41.26
2023-04-23T18:53:04.705Z,42.01
2023-04-23T18:55:31.963Z,42.16
2023-04-23T18:57:59.330Z,42.18
2023-04-23T19:00:26.572Z,42.31
2023-04-23T19:02:53.989Z,42.66
2023-04-23T19:05:21.375Z,42.54
2023-04-23T19:07:48.738Z,43.04
2023-04-23T19:10:16.706Z,43.35
2023-04-23T19:12:44.489Z,43.46
2023-04-23T19:15:12.011Z,43.76
2023-04-23T19:17:39.372Z,44.45
2023-04-23T19:20:28.343Z,45.28
2023-04-23T19:22:55.726Z,45.65
2023-04-23T19:25:22.966Z,46.14
2023-04-23T19:27:50.190Z,46.81
2023-04-23T19:30:17.546Z,47.47
2023-04-23T19:32:44.837Z,48.04
2023-04-23T19:35:12.235Z,48.23
2023-04-23T19:37:39.493Z,48.17
2023-04-23T19:40:07.580Z,48.71
2023-04-23T19:42:34.877Z,49.55
2023-04-23T19:45:02.781Z,50.33
2023-04-23T19:47:32.515Z,50.59
2023-04-23T19:49:59.798Z,50.72
2023-04-23T19:52:30.041Z,50.89
2023-04-23T19:54:57.282Z,51.33
2023-04-23T19:57:24.574Z,51.88
2023-04-23T19:59:51.833Z,51.90
2023-04-23T20:02:19.223Z,51.88
2023-04-23T20:04:46.650Z,51.85
2023-04-23T20:07:13.984Z,52.49
2023-04-23T20:09:41.979Z,53.09
2023-04-23T20:12:09.516Z,52.73
2023-04-23T20:14:36.903Z,52.69
2023-04-23T20:17:04.437Z,52.92
2023-04-23T20:19:31.836Z,53.27
2023-04-23T20:21:59.133Z,53.40
2023-04-23T20:24:26.502Z,53.79
2023-04-23T20:26:53.775Z,54.39
2023-04-23T20:29:21.080Z,54.59
2023-04-23T20:31:49.705Z,54.48
2023-04-23T20:34:17.121Z,54.59
2023-04-23T20:36:47.160Z,54.86
2023-04-23T20:39:15.045Z,55.90
2023-04-23T20:41:42.474Z,56.95
2023-04-23T20:44:09.783Z,56.90
2023-04-23T20:46:37.153Z,56.95
2023-04-23T20:49:04.539Z,57.68
2023-04-23T20:51:34.194Z,58.47
2023-04-23T20:54:01.917Z,58.33
2023-04-23T20:56:29.583Z,57.08
2023-04-23T20:59:00.049Z,57.18
2023-04-23T21:01:27.469Z,57.50
2023-04-23T21:03:55.016Z,56.95
2023-04-23T21:06:22.529Z,57.07
2023-04-23T21:08:49.785Z,57.39
2023-04-23T21:11:18.354Z,57.41
2023-04-23T21:13:46.218Z,58.47
2023-04-23T21:16:13.802Z,59.09
2023-04-23T21:18:41.304Z,59.01
2023-04-23T21:21:08.653Z,58.22
2023-04-23T21:23:36.190Z,58.48
2023-04-23T21:26:03.638Z,57.85
2023-04-23T21:28:31.808Z,58.70
2023-04-23T21:31:04.893Z,59.31
2023-04-23T21:33:32.640Z,59.18
2023-04-23T21:35:59.887Z,59.53
2023-04-23T21:38:27.212Z,58.94
2023-04-23T21:40:54.546Z,59.28
2023-04-23T21:43:21.793Z,59.51
2023-04-23T21:45:49.006Z,60.17
2023-04-23T21:48:16.285Z,59.70
2023-04-23T21:50:43.942Z,60.09
2023-04-23T21:53:13.137Z,60.58
2023-04-23T21:55:40.462Z,60.57
2023-04-23T21:58:17.389Z,61.22
2023-04-23T22:00:45.892Z,61.18
2023-04-23T22:03:20.713Z,61.43
2023-04-23T22:05:54.413Z,61.57
2023-04-23T22:08:21.753Z,61.61
2023-04-23T22:10:49.075Z,61.82
2023-04-23T22:13:16.432Z,60.79
2023-04-23T22:15:44.336Z,61.02
2023-04-23T22:18:11.603Z,61.30
2023-04-23T22:20:39.157Z,61.89
2023-04-23T22:23:06.409Z,63.05
2023-04-23T22:25:33.709Z,62.72
2023-04-23T22:28:01.057Z,62.55
2023-04-23T22:30:28.380Z,62.32
2023-04-23T22:32:55.794Z,63.14
2023-04-23T22:35:23.128Z,63.50
2023-04-23T22:37:50.410Z,63.32
2023-04-23T22:40:17.689Z,63.24
2023-04-23T22:42:45.950Z,63.21
2023-04-23T22:45:13.258Z,63.38
2023-04-23T22:47:40.556Z,63.27
2023-04-23T22:50:09.062Z,64.13
2023-04-23T22:52:36.726Z,64.33
2023-04-23T22:55:04.196Z,63.92
2023-04-23T22:57:31.494Z,63.54
2023-04-23T22:59:58.803Z,63.90
2023-04-23T23:02:26.795Z,63.92
2023-04-23T23:04:54.783Z,63.64
2023-04-23T23:07:22.014Z,63.68
2023-04-23T23:09:49.239Z,63.85
2023-04-23T23:12:16.516Z,64.34
2023-04-23T23:14:43.729Z,63.96
2023-04-23T23:17:11.204Z,64.41
2023-04-23T23:19:38.504Z,64.67
2023-04-23T23:22:06.227Z,64.06
2023-04-23T23:24:34.693Z,63.78
2023-04-23T23:27:02.635Z,64.83
2023-04-23T23:29:29.890Z,64.11
2023-04-23T23:32:00.188Z,64.77
2023-04-23T23:34:27.429Z,64.30
2023-04-23T23:36:54.727Z,64.74
2023-04-23T23:39:22.074Z,65.34
2023-04-23T23:41:49.383Z,65.83
2023-04-23T23:44:16.669Z,65.05
2023-04-23T23:46:44.300Z,65.32
2023-04-23T23:49:11.595Z,65.80
2023-04-23T23:51:38.887Z,64.58
2023-04-23T23:54:06.371Z,65.11
2023-04-23T23:56:33.666Z,65.59
2023-04-23T23:59:00.935Z,65.96
